Time;durP1;ratioP1;P1;durP2;ratioP2;P2;SDS_P1;SDS_P2;PMS_P1;PMS_P2;Temp;Humidity;BMP_temperature;BMP_pressure;BME280_temperature;BME280_humidity;BME280_pressure;Samples;Min_cycle;Max_cycle;Signal;HPM_P1;HPM_P2
2022/08/11 00:01:54;;;;;;;;;;;;;;;21.75;29.64;97799.75;5055527;28;937;-76
2022/08/11 00:04:20;;;;;;;;;;;;;;;21.88;29.37;97801.81;5054871;28;1312;-76
2022/08/11 00:06:46;;;;;;;;;;;;;;;21.67;29.56;97798.38;5055697;28;925;-76
2022/08/11 00:09:14;;;;;;;;;;;;;;;21.74;29.61;97798.16;5055095;28;952;-76
2022/08/11 00:11:42;;;;;;;;;;;;;;;21.71;29.50;97801.09;5056655;28;925;-77
2022/08/11 00:14:15;;;;;;;;;;;;;;;21.71;29.79;97804.75;5036952;28;995;-76
2022/08/11 00:16:41;;;;;;;;;;;;;;;21.63;29.70;97813.88;5037019;28;1981;-76
2022/08/11 00:19:06;;;;;;;;;;;;;;;21.73;29.74;97796.56;5036052;28;1509;-76
2022/08/11 00:21:32;;;;;;;;;;;;;;;22.03;29.13;97798.06;5037045;28;943;-77
2022/08/11 00:24:00;;;;;;;;;;;;;;;22.32;30.00;97783.00;5050951;28;1003;-76
2022/08/11 00:26:26;;;;;;;;;;;;;;;22.59;30.82;97789.00;5036990;28;1182;-76
2022/08/11 00:28:52;;;;;;;;;;;;;;;22.63;31.51;97786.00;5053604;28;941;-76
2022/08/11 00:31:26;;;;;;;;;;;;;;;22.44;32.37;97781.44;5054032;28;1086;-76
2022/08/11 00:33:51;;;;;;;;;;;;;;;22.32;32.42;97785.84;5052902;28;1330;-76
2022/08/11 00:36:18;;;;;;;;;;;;;;;22.21;31.72;97786.19;5053614;28;1977;-76
2022/08/11 00:38:44;;;;;;;;;;;;;;;21.97;31.81;97793.44;5053667;28;1028;-76
2022/08/11 00:41:28;;;;;;;;;;;;;;;22.12;31.44;97782.44;5053362;28;895;-76
2022/08/11 00:44:08;;;;;;;;;;;;;;;22.01;31.35;97774.25;5053312;28;997;-76
2022/08/11 00:46:41;;;;;;;;;;;;;;;21.93;31.25;97779.38;5056014;28;932;-77
2022/08/11 00:49:30;;;;;;;;;;;;;;;21.85;31.41;97775.97;5052587;28;1338;-76
2022/08/11 00:52:14;;;;;;;;;;;;;;;21.88;31.52;97779.16;5071077;28;906;-76
2022/08/11 00:54:51;;;;;;;;;;;;;;;21.93;31.22;97770.09;5055560;28;920;-76
2022/08/11 00:57:16;;;;;;;;;;;;;;;21.76;31.30;97777.88;5071230;28;873;-76
2022/08/11 01:00:01;;;;;;;;;;;;;;;21.91;31.06;97778.22;5055512;28;935;-76
2022/08/11 01:02:59;;;;;;;;;;;;;;;21.90;30.90;97782.31;5054559;28;1344;-76
2022/08/11 01:05:33;;;;;;;;;;;;;;;21.72;31.20;97777.22;4973914;28;1038;-76
2022/08/11 01:08:04;;;;;;;;;;;;;;;21.88;30.85;97781.97;4974158;28;1046;-76
2022/08/11 01:10:35;;;;;;;;;;;;;;;21.87;30.71;97777.56;4974239;28;1007;-76
2022/08/11 01:13:08;;;;;;;;;;;;;;;21.98;30.38;97786.53;4974524;28;965;-76
2022/08/11 01:15:56;;;;;;;;;;;;;;;21.87;30.87;97777.56;4974667;28;1979;-76
2022/08/11 01:18:30;;;;;;;;;;;;;;;21.71;30.96;97776.41;4984308;28;1476;-76
2022/08/11 01:21:03;;;;;;;;;;;;;;;21.82;31.05;97776.88;4979302;28;1413;-77
2022/08/11 01:23:47;;;;;;;;;;;;;;;21.78;31.02;97781.06;4957927;28;935;-76
2022/08/11 01:26:12;;;;;;;;;;;;;;;21.78;30.84;97778.22;4974070;28;1000;-76
2022/08/11 01:28:44;;;;;;;;;;;;;;;21.77;31.00;97763.28;4974233;28;1020;-76
2022/08/11 01:31:24;;;;;;;;;;;;;;;21.70;30.71;97774.81;4974109;28;971;-76
2022/08/11 01:33:50;;;;;;;;;;;;;;;21.78;30.50;97775.41;4973937;28;1030;-76
2022/08/11 01:36:34;;;;;;;;;;;;;;;21.67;30.79;97772.91;4992801;28;1961;-76
2022/08/11 01:39:18;;;;;;;;;;;;;;;21.62;30.79;97767.78;4993383;28;1033;-76
2022/08/11 01:44:46;;;;;;;;;;;;;;;21.66;30.93;97765.66;5035234;28;914;-76
2022/08/11 01:47:49;;;;;;;;;;;;;;;21.92;30.43;97752.31;5038046;28;1176;-76
2022/08/11 01:50:07;;;;;;;;;;;;;;;21.84;30.71;97751.72;5048889;28;1320;-76
2022/08/11 01:52:40;;;;;;;;;;;;;;;21.73;30.84;97754.09;5058181;28;960;-76
2022/08/11 01:55:38;;;;;;;;;;;;;;;21.92;30.41;97748.69;5058821;28;1902;-76
2022/08/11 01:58:19;;;;;;;;;;;;;;;21.70;31.01;97740.81;4980835;28;902;-76
2022/08/11 02:00:47;;;;;;;;;;;;;;;21.67;31.12;97747.41;4980774;28;1003;-76
2022/08/11 02:03:21;;;;;;;;;;;;;;;21.69;31.13;97742.09;4980466;28;1505;-76
2022/08/11 02:05:59;;;;;;;;;;;;;;;21.81;31.13;97746.97;4964957;28;1950;-76
2022/08/11 02:08:43;;;;;;;;;;;;;;;21.69;31.46;97739.25;4996889;28;1119;-76
2022/08/11 02:14:19;;;;;;;;;;;;;;;21.98;30.95;97739.16;4983035;28;1069;-77
2022/08/11 02:16:54;;;;;;;;;;;;;;;21.83;31.06;97733.16;4996748;28;1910;-76
2022/08/11 02:25:01;;;;;;;;;;;;;;;21.79;31.35;97738.13;4982996;28;981;-76
2022/08/11 02:27:31;;;;;;;;;;;;;;;21.82;31.30;97734.41;4963957;28;1066;-76
2022/08/11 02:30:07;;;;;;;;;;;;;;;21.88;31.16;97739.50;4980209;28;930;-76
2022/08/11 02:35:27;;;;;;;;;;;;;;;21.75;31.42;97737.44;5042577;28;1906;-76
2022/08/11 02:38:02;;;;;;;;;;;;;;;21.84;31.22;97746.06;5056812;28;1010;-77
2022/08/11 02:40:47;;;;;;;;;;;;;;;21.93;31.06;97741.75;5056892;28;1291;-76
2022/08/11 02:43:17;;;;;;;;;;;;;;;21.56;32.01;97752.63;5056574;28;916;-76
2022/08/11 02:45:48;;;;;;;;;;;;;;;21.89;31.41;97749.56;5056598;28;944;-77
2022/08/11 02:51:16;;;;;;;;;;;;;;;21.83;31.29;97744.47;5015825;28;1011;-76
2022/08/11 02:53:42;;;;;;;;;;;;;;;21.62;31.67;97756.47;5015570;28;967;-76
2022/08/11 02:56:26;;;;;;;;;;;;;;;21.78;31.51;97736.53;5015748;28;1972;-76
2022/08/11 03:01:40;;;;;;;;;;;;;;;21.75;31.39;97748.75;5001584;28;1125;-76
2022/08/11 03:04:06;;;;;;;;;;;;;;;21.77;31.35;97742.66;5015395;28;904;-77
2022/08/11 03:06:32;;;;;;;;;;;;;;;21.78;31.51;97738.59;5015241;28;990;-76
2022/08/11 03:09:05;;;;;;;;;;;;;;;21.81;31.26;97741.31;5015393;28;910;-76
2022/08/11 03:17:22;;;;;;;;;;;;;;;21.90;31.27;97737.78;5001520;28;1975;-77
2022/08/11 03:19:58;;;;;;;;;;;;;;;21.74;31.60;97747.19;5001034;28;960;-76
2022/08/11 03:22:37;;;;;;;;;;;;;;;21.99;31.21;97739.94;4995474;28;1190;-76
2022/08/11 03:25:11;;;;;;;;;;;;;;;21.66;31.64;97745.84;4995648;28;1035;-76
2022/08/11 03:27:40;;;;;;;;;;;;;;;21.84;31.67;97737.56;4995451;28;1011;-76
2022/08/11 03:30:15;;;;;;;;;;;;;;;21.89;31.20;97741.06;4975164;28;1386;-76
2022/08/11 03:34:00;;;;;;;;;;;;;;;21.78;31.29;97756.38;4975863;28;914;-76
2022/08/11 03:35:31;;;;;;;;;;;;;;;21.87;31.55;97749.25;4962704;28;1931;-76
2022/08/11 03:37:59;;;;;;;;;;;;;;;21.98;31.08;97744.03;4959744;28;949;-76
2022/08/11 03:43:46;;;;;;;;;;;;;;;21.88;31.33;97750.81;4979767;28;1045;-76
2022/08/11 03:46:12;;;;;;;;;;;;;;;21.80;31.92;97759.53;4924008;29;1443;-76
2022/08/11 03:48:38;;;;;;;;;;;;;;;21.82;31.41;97747.78;4936745;29;1005;-76
2022/08/11 03:51:13;;;;;;;;;;;;;;;21.81;31.60;97752.66;4975246;28;962;-76
2022/08/11 03:53:50;;;;;;;;;;;;;;;21.73;31.92;97754.09;4943238;28;1090;-76
2022/08/11 03:56:28;;;;;;;;;;;;;;;21.83;31.58;97744.47;4975330;28;1902;-76
2022/08/11 03:59:05;;;;;;;;;;;;;;;21.82;31.77;97754.22;4974787;28;1589;-76
2022/08/11 04:01:36;;;;;;;;;;;;;;;21.96;31.75;97752.97;4975301;28;1025;-76
2022/08/11 04:04:02;;;;;;;;;;;;;;;21.87;31.62;97737.91;4975427;28;1046;-77
2022/08/11 04:06:40;;;;;;;;;;;;;;;22.02;31.47;97744.69;4993782;28;1582;-76
2022/08/11 04:09:05;;;;;;;;;;;;;;;21.99;31.46;97739.94;5010815;28;964;-76
2022/08/11 04:11:36;;;;;;;;;;;;;;;21.92;31.48;97745.84;4994888;28;955;-76
2022/08/11 04:17:24;;;;;;;;;;;;;;;21.56;32.29;97759.06;4994504;28;1989;-76
2022/08/11 04:20:07;;;;;;;;;;;;;;;21.66;31.90;97756.34;4974892;28;954;-76
2022/08/11 04:22:48;;;;;;;;;;;;;;;21.63;31.82;97758.06;4975549;28;1012;-76
2022/08/11 04:25:13;;;;;;;;;;;;;;;21.93;31.58;97762.38;4994382;28;946;-77
2022/08/11 04:27:39;;;;;;;;;;;;;;;21.93;31.60;97764.41;4994662;28;966;-76
2022/08/11 04:30:13;;;;;;;;;;;;;;;21.82;31.80;97768.38;4994262;28;852;-76
2022/08/11 04:33:07;;;;;;;;;;;;;;;21.80;32.01;97762.34;4994252;28;1022;-76
2022/08/11 04:35:52;;;;;;;;;;;;;;;21.65;32.00;97766.09;4978328;28;1895;-76
2022/08/11 04:38:26;;;;;;;;;;;;;;;21.94;31.59;97766.00;5013536;28;1617;-77
2022/08/11 04:41:13;;;;;;;;;;;;;;;21.93;31.71;97765.22;5013519;28;1000;-78
2022/08/11 04:43:55;;;;;;;;;;;;;;;21.92;31.52;97762.84;5013620;28;971;-76
2022/08/11 04:46:30;;;;;;;;;;;;;;;22.01;31.68;97754.44;5013627;28;932;-77
2022/08/11 05:03:27;;;;;;;;;;;;;;;21.96;32.19;97755.00;5039078;28;1035;-77
2022/08/11 05:06:10;;;;;;;;;;;;;;;21.82;32.48;97754.22;5053281;28;957;-77
2022/08/11 05:08:42;;;;;;;;;;;;;;;22.00;32.17;97752.84;5045070;28;975;-76
2022/08/11 05:11:18;;;;;;;;;;;;;;;22.12;31.70;97754.91;5032769;28;954;-76
2022/08/11 05:36:16;;;;;;;;;;;;;;;21.92;32.72;97768.50;4979465;28;1977;-76
2022/08/11 05:58:01;;;;;;;;;;;;;;;22.20;31.99;97767.59;4962993;28;1242;-77
2022/08/11 06:00:27;;;;;;;;;;;;;;;22.06;32.60;97768.03;4966638;28;1250;-77
2022/08/11 06:02:56;;;;;;;;;;;;;;;22.07;32.34;97763.94;5003610;28;1380;-76
2022/08/11 06:05:29;;;;;;;;;;;;;;;22.28;31.99;97768.97;4986170;28;1246;-77
2022/08/11 06:07:55;;;;;;;;;;;;;;;22.16;32.28;97761.25;5003205;28;1202;-76
2022/08/11 06:10:24;;;;;;;;;;;;;;;22.05;32.27;97757.94;4985742;28;1219;-77
2022/08/11 06:12:51;;;;;;;;;;;;;;;22.19;32.03;97766.03;4986003;28;1516;-77
2022/08/11 06:15:17;;;;;;;;;;;;;;;22.15;32.39;97764.56;4995034;28;1907;-76
2022/08/11 06:17:44;;;;;;;;;;;;;;;22.16;32.26;97761.25;5001100;28;1438;-77
2022/08/11 06:20:11;;;;;;;;;;;;;;;21.78;32.79;97747.88;4993029;28;1133;-76
2022/08/11 06:22:36;;;;;;;;;;;;;;;22.04;32.34;97767.69;4993522;28;996;-76
2022/08/11 06:25:02;;;;;;;;;;;;;;;22.10;32.60;97760.22;5012350;28;980;-77
2022/08/11 06:27:29;;;;;;;;;;;;;;;22.12;32.55;97760.56;5029248;28;1086;-76
2022/08/11 06:29:55;;;;;;;;;;;;;;;22.31;32.04;97762.38;5048826;28;948;-76
2022/08/11 06:32:22;;;;;;;;;;;;;;;22.04;32.58;97762.03;5017086;28;988;-76
2022/08/11 06:34:52;;;;;;;;;;;;;;;22.07;32.48;97758.28;5035747;28;1003;-76
2022/08/11 06:37:36;;;;;;;;;;;;;;;22.21;32.41;97763.53;5019177;28;2081;-76
2022/08/11 06:40:08;;;;;;;;;;;;;;;22.15;32.49;97759.69;5035595;28;898;-76
2022/08/11 06:42:45;;;;;;;;;;;;;;;22.25;32.10;97758.53;5019156;28;991;-76
2022/08/11 06:45:29;;;;;;;;;;;;;;;22.02;32.32;97765.34;5036170;28;886;-76
2022/08/11 06:47:59;;;;;;;;;;;;;;;22.06;32.55;97762.38;5035298;28;1039;-76
2022/08/11 06:53:09;;;;;;;;;;;;;;;22.06;32.28;97762.38;5035517;28;1035;-76
2022/08/11 07:01:10;;;;;;;;;;;;;;;22.20;31.98;97766.81;5031151;28;937;-76
2022/08/11 07:03:57;;;;;;;;;;;;;;;21.94;32.40;97768.84;5032835;28;1009;-76
2022/08/11 07:06:37;;;;;;;;;;;;;;;21.92;32.63;97769.28;5015500;28;1144;-76
2022/08/11 07:28:54;;;;;;;;;;;;;;;22.35;32.07;97791.41;5001464;28;984;-76
2022/08/11 07:28:54;;;;;;;;;;;;;;;22.35;31.73;97797.06;5001483;28;968;-76
2022/08/11 07:31:40;;;;;;;;;;;;;;;22.32;32.03;97792.28;4999383;28;992;-76
2022/08/11 07:34:19;;;;;;;;;;;;;;;22.27;32.23;97795.69;5014925;28;1598;-76
2022/08/11 07:36:47;;;;;;;;;;;;;;;22.34;31.92;97801.16;4975656;28;1918;-76
2022/08/11 07:39:17;;;;;;;;;;;;;;;22.07;32.23;97803.63;4975545;28;1540;-76
2022/08/11 07:41:42;;;;;;;;;;;;;;;22.40;31.66;97795.72;4991963;28;1098;-77
2022/08/11 07:44:08;;;;;;;;;;;;;;;22.27;31.93;97800.59;4979501;28;1018;-76
2022/08/11 07:54:46;;;;;;;;;;;;;;;22.21;32.00;97802.41;4975643;28;970;-76
2022/08/11 08:19:12;;;;;;;;;;;;;;;22.26;32.04;97785.63;5029723;28;944;-78
2022/08/11 08:21:38;;;;;;;;;;;;;;;22.27;32.29;97792.06;5032016;28;1112;-77
2022/08/11 08:24:03;;;;;;;;;;;;;;;22.27;32.02;97787.19;5017080;28;903;-77
2022/08/11 08:31:57;;;;;;;;;;;;;;;22.24;31.99;97796.63;5016522;28;922;-77
2022/08/11 08:34:22;;;;;;;;;;;;;;;22.13;32.52;97803.91;5031977;28;950;-77
2022/08/11 08:36:49;;;;;;;;;;;;;;;22.22;32.22;97796.28;5053976;28;2044;-77
2022/08/11 08:39:15;;;;;;;;;;;;;;;22.28;32.11;97797.31;5053582;28;994;-76
2022/08/11 08:41:41;;;;;;;;;;;;;;;22.22;32.03;97793.44;5037422;28;987;-75
2022/08/11 08:44:07;;;;;;;;;;;;;;;22.23;32.37;97812.06;5053814;28;1057;-75
2022/08/11 08:46:36;;;;;;;;;;;;;;;22.04;32.28;97804.53;5053596;28;952;-76
2022/08/11 08:49:02;;;;;;;;;;;;;;;22.27;32.03;97795.69;5053534;28;1154;-75
2022/08/11 08:51:33;;;;;;;;;;;;;;;22.36;31.73;97795.81;5053358;28;948;-75
2022/08/11 08:54:09;;;;;;;;;;;;;;;22.19;32.46;97785.06;5053549;28;1058;-75
2022/08/11 08:56:34;;;;;;;;;;;;;;;22.31;32.18;97802.06;5052454;28;1906;-75
2022/08/11 08:59:00;;;;;;;;;;;;;;;22.20;32.42;97792.31;5053764;28;890;-75
2022/08/11 09:01:29;;;;;;;;;;;;;;;22.25;32.24;97786.09;5053633;28;1024;-75
2022/08/11 09:03:55;;;;;;;;;;;;;;;22.24;32.16;97790.97;5033658;28;959;-76
2022/08/11 09:06:20;;;;;;;;;;;;;;;22.20;32.52;97795.94;5033726;28;976;-75
2022/08/11 09:08:46;;;;;;;;;;;;;;;22.34;32.19;97801.16;4980183;28;941;-75
2022/08/11 09:13:55;;;;;;;;;;;;;;;22.34;31.86;97772.81;4993856;28;1019;-76
2022/08/11 09:16:21;;;;;;;;;;;;;;;22.30;32.17;97783.47;4993711;28;1998;-76
2022/08/11 09:18:46;;;;;;;;;;;;;;;22.55;31.87;97787.53;4994097;28;984;-76
2022/08/11 09:21:13;;;;;;;;;;;;;;;22.31;32.13;97785.06;4993977;28;1014;-76
2022/08/11 09:29:07;;;;;;;;;;;;;;;22.36;32.36;97783.69;4974771;28;1122;-75
2022/08/11 09:31:32;;;;;;;;;;;;;;;22.33;32.48;97776.91;4974364;28;946;-76
2022/08/11 09:33:58;;;;;;;;;;;;;;;22.37;32.17;97771.09;5008936;28;1505;-76
2022/08/11 09:41:51;;;;;;;;;;;;;;;22.27;32.58;97777.91;5006215;28;979;-76
2022/08/11 09:47:01;;;;;;;;;;;;;;;22.46;32.23;97778.91;4993611;28;1037;-76
2022/08/11 09:49:26;;;;;;;;;;;;;;;22.34;32.57;97781.31;4993676;28;1057;-75
2022/08/11 09:51:52;;;;;;;;;;;;;;;22.28;32.63;97773.84;4993929;28;1068;-75
2022/08/11 09:54:17;;;;;;;;;;;;;;;22.19;32.82;97774.53;4964269;28;1572;-70
2022/08/11 09:59:26;;;;;;;;;;;;;;;23.07;34.43;97780.47;4947829;29;1927;-74
2022/08/11 10:02:01;;;;;;;;;;;;;;;23.03;33.56;97771.28;4946909;28;2124;-73
2022/08/11 10:04:33;;;;;;;;;;;;;;;23.21;34.07;97779.97;4967366;28;1930;-70
2022/08/11 10:07:01;;;;;;;;;;;;;;;23.17;34.66;97775.66;4956466;28;1878;-70
2022/08/11 10:09:28;;;;;;;;;;;;;;;23.06;35.47;97782.50;4913263;29;1022;-70
2022/08/11 10:11:56;;;;;;;;;;;;;;;23.21;35.58;97788.47;4921947;29;1003;-70
2022/08/11 10:17:07;;;;;;;;;;;;;;;23.22;35.58;97795.72;4914456;29;2114;-75
2022/08/11 10:19:32;;;;;;;;;;;;;;;23.07;35.28;97771.97;4899224;29;1949;-75
2022/08/11 10:27:26;;;;;;;;;;;;;;;23.25;33.98;97785.47;4936492;29;1627;-75
2022/08/11 10:35:20;;;;;;;;;;;;;;;23.22;33.32;97790.06;4934887;29;1907;-77
2022/08/11 10:37:45;;;;;;;;;;;;;;;23.43;32.94;97788.47;4953899;29;2131;-76
2022/08/11 10:40:15;;;;;;;;;;;;;;;23.19;33.18;97796.63;4947894;28;2082;-76
2022/08/11 10:48:09;;;;;;;;;;;;;;;23.13;32.88;97804.16;4950211;28;1459;-76
2022/08/11 10:58:50;;;;;;;;;;;;;;;23.17;32.68;97801.22;4977156;28;1438;-73
2022/08/11 11:01:17;;;;;;;;;;;;;;;23.29;33.00;97786.16;4978372;28;1526;-73
2022/08/11 11:03:43;;;;;;;;;;;;;;;23.14;33.09;97797.22;4967551;28;2290;-73
2022/08/11 11:06:26;;;;;;;;;;;;;;;23.15;33.30;97778.94;4929476;29;1470;-73
2022/08/11 11:08:59;;;;;;;;;;;;;;;23.25;32.89;97788.31;4931786;29;1428;-73
2022/08/11 11:19:38;;;;;;;;;;;;;;;23.38;32.84;97781.34;4963902;28;1426;-78
2022/08/11 11:22:37;;;;;;;;;;;;;;;23.25;33.04;97789.13;4954643;29;1596;-78
2022/08/11 11:24:58;;;;;;;;;;;;;;;23.30;32.82;97785.69;4957063;29;990;-78
2022/08/11 11:27:27;;;;;;;;;;;;;;;23.35;32.85;97787.13;4945856;28;2213;-78
2022/08/11 11:30:04;;;;;;;;;;;;;;;23.20;32.88;97791.75;4911644;29;1618;-78
2022/08/11 11:32:32;;;;;;;;;;;;;;;23.47;32.55;97794.03;4920584;29;1817;-77
2022/08/11 11:34:58;;;;;;;;;;;;;;;23.25;32.53;97800.47;4899690;29;1605;-78
2022/08/11 11:37:23;;;;;;;;;;;;;;;23.35;32.27;97790.75;4900018;29;1903;-78
2022/08/11 11:39:49;;;;;;;;;;;;;;;23.51;32.35;97788.97;4884082;29;1614;-78
2022/08/11 11:42:14;;;;;;;;;;;;;;;23.44;32.38;97784.38;4836253;29;1537;-78
2022/08/11 11:44:42;;;;;;;;;;;;;;;23.53;32.06;97780.81;4817727;29;1395;-72
2022/08/11 11:47:07;;;;;;;;;;;;;;;23.56;32.18;97780.66;4810477;29;1540;-77
2022/08/11 11:49:34;;;;;;;;;;;;;;;23.73;32.11;97772.75;4826152;29;1230;-77
2022/08/11 11:52:00;;;;;;;;;;;;;;;23.68;31.80;97781.09;4827569;29;1466;-77
2022/08/11 11:54:29;;;;;;;;;;;;;;;23.56;32.31;97779.84;4862299;29;1381;-77
2022/08/11 11:56:55;;;;;;;;;;;;;;;23.40;32.60;97773.13;4862081;29;1915;-77
2022/08/11 12:02:08;;;;;;;;;;;;;;;23.71;32.11;97783.78;4848800;29;1476;-77
2022/08/11 12:04:35;;;;;;;;;;;;;;;23.63;32.20;97779.63;4846738;29;1534;-77
2022/08/11 12:09:45;;;;;;;;;;;;;;;23.71;33.44;97763.09;4847368;29;1415;-70
2022/08/11 12:14:54;;;;;;;;;;;;;;;23.87;33.89;97782.75;4958042;28;1485;-69
2022/08/11 12:17:20;;;;;;;;;;;;;;;24.09;34.01;97771.34;4950599;28;1914;-71
2022/08/11 12:19:45;;;;;;;;;;;;;;;24.10;33.95;97773.72;4964257;28;1670;-70
2022/08/11 12:27:40;;;;;;;;;;;;;;;23.61;34.35;97782.09;4941142;29;1462;-69
2022/08/11 12:30:07;;;;;;;;;;;;;;;23.42;34.74;97786.09;4951882;28;1371;-77
2022/08/11 12:32:33;;;;;;;;;;;;;;;22.99;34.81;97776.28;4955529;29;1014;-78
2022/08/11 12:34:59;;;;;;;;;;;;;;;22.99;35.01;97787.63;4955622;29;1008;-75
2022/08/11 12:37:28;;;;;;;;;;;;;;;23.01;34.67;97779.47;4949133;29;1982;-76
2022/08/11 12:45:27;;;;;;;;;;;;;;;23.07;33.26;97788.97;4916561;29;1379;-77
2022/08/11 12:53:26;;;;;;;;;;;;;;;23.45;31.95;97779.47;4916855;29;1133;-77
2022/08/11 12:58:46;;;;;;;;;;;;;;;23.08;32.16;97782.06;4916519;29;1070;-77
2022/08/11 13:06:40;;;;;;;;;;;;;;;23.31;31.79;97787.28;4915948;29;1331;-77
2022/08/11 13:09:05;;;;;;;;;;;;;;;23.19;31.76;97779.59;4916474;29;1213;-77
2022/08/11 13:14:15;;;;;;;;;;;;;;;22.87;32.27;97787.19;4922253;29;1161;-77
2022/08/11 13:19:24;;;;;;;;;;;;;;;23.13;31.58;97795.66;4890119;29;1248;-77
2022/08/11 13:21:50;;;;;;;;;;;;;;;23.12;31.61;97785.56;4898021;29;1252;-77
2022/08/11 13:24:17;;;;;;;;;;;;;;;23.10;31.64;97771.00;4898260;29;868;-77
2022/08/11 13:26:42;;;;;;;;;;;;;;;23.32;31.09;97771.84;4898287;29;960;-77
2022/08/11 13:29:08;;;;;;;;;;;;;;;22.91;31.96;97769.31;4913823;29;963;-77
2022/08/11 13:31:34;;;;;;;;;;;;;;;23.13;31.55;97775.78;4898049;29;969;-77
2022/08/11 13:34:00;;;;;;;;;;;;;;;22.97;31.82;97773.13;4913592;28;1310;-76
2022/08/11 13:36:27;;;;;;;;;;;;;;;22.75;31.80;97773.84;5008882;28;1926;-77
2022/08/11 13:38:53;;;;;;;;;;;;;;;23.07;31.57;97774.78;4996721;28;990;-77
2022/08/11 13:41:38;;;;;;;;;;;;;;;22.94;31.52;97780.50;5013095;28;1110;-77
2022/08/11 13:44:03;;;;;;;;;;;;;;;22.77;31.69;97782.69;5000853;28;1036;-76
2022/08/11 13:46:29;;;;;;;;;;;;;;;22.77;31.76;97774.19;5017085;28;1027;-77
2022/08/11 13:48:55;;;;;;;;;;;;;;;23.06;31.20;97773.22;5000879;28;1026;-77
2022/08/11 13:51:29;;;;;;;;;;;;;;;22.83;31.71;97778.00;5000999;28;960;-77
2022/08/11 13:54:11;;;;;;;;;;;;;;;22.90;31.23;97779.84;5002206;28;1159;-77
2022/08/11 13:56:40;;;;;;;;;;;;;;;22.78;31.44;97783.47;5000755;28;1981;-77
2022/08/11 13:59:08;;;;;;;;;;;;;;;22.86;31.49;97782.00;5000871;28;990;-77
2022/08/11 14:01:36;;;;;;;;;;;;;;;22.73;31.60;97779.19;5000678;28;950;-76
2022/08/11 14:04:06;;;;;;;;;;;;;;;22.79;31.42;97785.84;4984053;28;1001;-77
2022/08/11 14:06:33;;;;;;;;;;;;;;;23.07;30.66;97784.09;5000882;28;931;-77
2022/08/11 14:08:59;;;;;;;;;;;;;;;22.75;31.50;97793.72;5000996;28;958;-77
2022/08/11 14:14:08;;;;;;;;;;;;;;;22.99;30.97;97774.25;5019137;28;1026;-77
2022/08/11 14:16:35;;;;;;;;;;;;;;;23.00;30.82;97769.34;5050979;28;1897;-76
2022/08/11 14:19:04;;;;;;;;;;;;;;;22.72;31.30;97768.31;5050588;28;879;-77
2022/08/11 14:24:16;;;;;;;;;;;;;;;22.86;31.37;97782.78;5045778;28;929;-77
2022/08/11 14:26:43;;;;;;;;;;;;;;;22.86;31.24;97779.94;5050769;28;914;-76
2022/08/11 14:29:09;;;;;;;;;;;;;;;22.68;31.20;97785.44;5028546;28;1138;-77
2022/08/11 14:31:38;;;;;;;;;;;;;;;22.98;30.88;97780.38;5038286;28;1201;-77
2022/08/11 14:34:04;;;;;;;;;;;;;;;22.73;31.42;97798.25;5036995;28;1288;-76
2022/08/11 14:36:32;;;;;;;;;;;;;;;22.79;31.45;97791.53;5035197;28;1894;-77
2022/08/11 14:38:58;;;;;;;;;;;;;;;22.98;30.99;97786.06;5065301;28;1296;-77
2022/08/11 14:47:04;;;;;;;;;;;;;;;22.70;31.14;97791.47;5057807;28;1218;-76
2022/08/11 14:49:30;;;;;;;;;;;;;;;22.93;31.04;97778.94;5060544;28;1275;-77
2022/08/11 14:51:56;;;;;;;;;;;;;;;23.03;30.75;97788.31;5065115;28;1332;-76
2022/08/11 14:57:11;;;;;;;;;;;;;;;22.69;31.25;97791.91;5051978;28;1906;-76
2022/08/11 14:59:37;;;;;;;;;;;;;;;22.72;31.21;97791.78;5048113;28;1233;-76
2022/08/11 15:04:46;;;;;;;;;;;;;;;22.73;31.12;97781.22;5054628;28;1166;-77
2022/08/11 15:07:12;;;;;;;;;;;;;;;22.75;30.82;97785.22;5062982;28;1052;-77
2022/08/11 15:09:42;;;;;;;;;;;;;;;22.70;31.24;97782.16;5053507;28;1174;-77
2022/08/11 15:12:07;;;;;;;;;;;;;;;22.80;30.94;97781.78;5034204;28;1151;-76
2022/08/11 15:17:16;;;;;;;;;;;;;;;22.57;31.19;97773.66;5050274;28;1914;-77
2022/08/11 15:25:10;;;;;;;;;;;;;;;22.88;30.51;97771.78;5033068;28;1237;-77
2022/08/11 15:38:45;;;;;;;;;;;;;;;22.65;30.90;97772.19;5006909;28;1218;-77
2022/08/11 15:46:41;;;;;;;;;;;;;;;22.52;31.46;97771.41;4924132;29;1229;-77
2022/08/11 15:49:07;;;;;;;;;;;;;;;22.66;31.21;97765.25;4918671;29;1353;-77
2022/08/11 15:51:34;;;;;;;;;;;;;;;22.73;31.05;97770.66;4917998;29;1040;-77
2022/08/11 15:54:02;;;;;;;;;;;;;;;22.73;30.90;97773.50;4898636;29;1379;-77
2022/08/11 15:56:28;;;;;;;;;;;;;;;22.80;30.75;97781.00;4891105;29;1910;-77
2022/08/11 16:04:25;;;;;;;;;;;;;;;22.89;30.69;97772.56;4851372;29;1262;-77
2022/08/11 16:06:50;;;;;;;;;;;;;;;22.85;30.68;97784.03;4843980;29;1207;-77
2022/08/11 16:09:18;;;;;;;;;;;;;;;22.81;30.73;97783.38;4845346;29;1285;-77
2022/08/11 16:11:43;;;;;;;;;;;;;;;22.64;31.27;97779.13;4845695;29;1211;-76
2022/08/11 16:16:53;;;;;;;;;;;;;;;22.69;31.04;97775.69;4898114;29;1985;-76
2022/08/11 16:19:19;;;;;;;;;;;;;;;22.69;30.87;97780.56;4896408;29;1339;-76
2022/08/11 16:21:44;;;;;;;;;;;;;;;22.66;31.23;97782.28;4900872;29;1349;-76
2022/08/11 16:24:10;;;;;;;;;;;;;;;22.71;30.87;97784.53;4899046;29;1288;-76
2022/08/11 16:26:38;;;;;;;;;;;;;;;22.87;30.85;97787.19;4917027;29;1378;-76
2022/08/11 16:29:03;;;;;;;;;;;;;;;22.72;31.17;97786.09;4914419;29;1216;-76
2022/08/11 16:31:29;;;;;;;;;;;;;;;22.69;30.88;97789.88;4908734;29;1304;-76
2022/08/11 16:33:54;;;;;;;;;;;;;;;22.85;30.85;97777.56;4925371;29;1305;-77
2022/08/11 16:39:05;;;;;;;;;;;;;;;23.06;30.33;97784.56;4943297;28;1636;-77
2022/08/11 16:46:59;;;;;;;;;;;;;;;22.70;30.74;97793.50;4930442;28;1263;-76
2022/08/11 16:49:29;;;;;;;;;;;;;;;22.67;30.88;97789.53;4906793;29;1216;-76
2022/08/11 16:51:55;;;;;;;;;;;;;;;22.85;30.93;97788.94;4919280;29;1220;-76
2022/08/11 16:54:20;;;;;;;;;;;;;;;23.01;30.43;97785.16;4875115;29;1240;-75
2022/08/11 16:56:49;;;;;;;;;;;;;;;22.85;30.75;97786.88;4860895;29;1978;-75
2022/08/11 16:59:31;;;;;;;;;;;;;;;22.66;31.13;97787.16;4897881;29;1079;-75
2022/08/11 17:01:56;;;;;;;;;;;;;;;22.65;30.80;97786.38;4903063;29;1020;-76
2022/08/11 17:13:09;;;;;;;;;;;;;;;22.74;30.92;97794.97;4969065;28;1120;-75
2022/08/11 17:21:03;;;;;;;;;;;;;;;22.71;30.52;97807.22;4908968;29;939;-75
2022/08/11 17:23:48;;;;;;;;;;;;;;;22.70;30.64;97802.00;4924956;29;923;-76
2022/08/11 17:26:17;;;;;;;;;;;;;;;22.87;30.38;97801.38;4935369;29;1027;-75
2022/08/11 17:28:43;;;;;;;;;;;;;;;22.42;31.29;97801.69;4935790;29;964;-76
2022/08/11 17:36:37;;;;;;;;;;;;;;;22.49;30.88;97795.03;4916475;29;1977;-75
2022/08/11 17:39:02;;;;;;;;;;;;;;;22.74;30.69;97806.31;4879535;29;949;-76
2022/08/11 17:49:39;;;;;;;;;;;;;;;22.56;30.70;97823.13;4878782;29;974;-76
2022/08/11 18:00:17;;;;;;;;;;;;;;;22.78;30.40;97826.81;4869861;29;961;-75
2022/08/11 18:05:27;;;;;;;;;;;;;;;22.61;30.56;97822.56;4916276;29;1050;-75
